Terminal Aerodrome Forecast
Issued by NWS

Home | Current Version | Previous Version | Text Only | Print | Product List | Glossary On
Versions: 1 2 3 4 5 6 7 8 9 10 11 12 13 14 15 16 17 18 19
568
FTUS43 KDTX 122039 AAA
TAFMBS
TAF AMD
KMBS 122039Z 1221/1318 31018G28KT P6SM -SHSN SCT028 OVC035
      TEMPO 1221/1224 2SM -SHSN BKN028 OVC035
     FM130200 32014G24KT P6SM -SHSN BKN035
     FM130500 32011KT P6SM SCT020 BKN035
     FM131500 31010KT P6SM BKN035=

USA.gov is the U.S. government's official web portal to all federal, state and local government web resources and services.